Terminal Aerodrome Forecast
Issued by NWS Mobile, AL

Home | Current Version | Previous Version | Text Only | Print | Product List | Glossary On
Versions: 1 2 3 4 5 6 7 8 9 10 11 12 13 14 15 16 17 18 19 20
000
FTUS44 KMOB 230206 AAC
TAFMOB
TAF AMD
KMOB 230206Z 2302/2324 18006KT 1/4SM FG OVC002
      TEMPO 2302/2304 1/2SM FG BKN002
     FM230600 29005KT P6SM SCT050 SCT250
     FM231400 31012KT P6SM FEW050=

USA.gov is the U.S. government's official web portal to all federal, state and local government web resources and services.